createdAt,value
2023-01-02T00:03:54.260Z,346.07
2023-01-02T00:09:01.326Z,347.75
2023-01-02T00:14:08.527Z,347.59
2023-01-02T00:19:15.768Z,346.89
2023-01-02T00:24:22.971Z,348.83
2023-01-02T00:29:30.139Z,349.18
2023-01-02T00:34:37.373Z,349.24
2023-01-02T00:39:44.554Z,348.15
2023-01-02T00:44:51.760Z,349.01
2023-01-02T00:49:58.972Z,349.33
2023-01-02T00:55:06.158Z,349.94
2023-01-02T01:00:18.400Z,351.15
2023-01-02T01:05:20.603Z,350.26
2023-01-02T01:10:27.782Z,349.06
2023-01-02T01:15:34.989Z,351.62
2023-01-02T01:20:42.214Z,352.04
2023-01-02T01:25:49.438Z,350.70
2023-01-02T01:30:56.704Z,351.30
2023-01-02T01:36:03.889Z,350.48
2023-01-02T01:41:11.087Z,351.28
2023-01-02T01:46:18.319Z,352.47
2023-01-02T01:51:25.526Z,352.82
2023-01-02T01:56:32.766Z,351.45
2023-01-02T02:01:40.121Z,352.60
2023-01-02T02:06:47.260Z,351.19
2023-01-02T02:11:54.436Z,352.21
2023-01-02T02:17:01.644Z,350.95
2023-01-02T02:22:09.133Z,350.67
2023-01-02T02:27:16.308Z,353.09
2023-01-02T02:32:23.561Z,353.67
2023-01-02T02:37:30.895Z,353.46
2023-01-02T02:42:38.054Z,354.55
2023-01-02T02:47:45.285Z,353.38
2023-01-02T02:52:52.535Z,355.66
2023-01-02T02:57:59.748Z,355.53
2023-01-02T03:03:07.138Z,354.76
2023-01-02T03:08:14.301Z,355.13
2023-01-02T03:13:21.378Z,354.43
2023-01-02T03:18:28.605Z,354.47
2023-01-02T03:23:35.825Z,354.91
2023-01-02T03:28:43.057Z,354.57
2023-01-02T03:33:50.298Z,355.27
2023-01-02T03:38:57.654Z,356.08
2023-01-02T03:44:04.740Z,355.15
2023-01-02T03:49:11.937Z,355.75
2023-01-02T03:54:19.177Z,356.14
2023-01-02T03:59:26.390Z,356.33
2023-01-02T04:04:33.578Z,356.12
2023-01-02T04:09:40.781Z,356.53
2023-01-02T04:14:47.942Z,356.11
2023-01-02T04:19:55.145Z,355.37
2023-01-02T04:25:02.394Z,354.58
2023-01-02T04:30:09.633Z,355.49
2023-01-02T04:35:16.874Z,355.51
2023-01-02T04:40:24.118Z,354.75
2023-01-02T04:45:31.332Z,356.00
2023-01-02T04:50:38.497Z,355.50
2023-01-02T04:55:45.720Z,355.94
2023-01-02T05:00:52.884Z,356.41
2023-01-02T05:06:00.097Z,355.94
2023-01-02T05:11:07.427Z,356.07
2023-01-02T05:16:14.706Z,355.10
2023-01-02T05:21:21.793Z,355.05
2023-01-02T05:26:29.060Z,355.58
2023-01-02T05:31:36.173Z,356.26
2023-01-02T05:36:43.452Z,356.34
2023-01-02T05:41:50.646Z,355.96
2023-01-02T05:46:57.893Z,355.97
2023-01-02T05:52:05.074Z,355.91
2023-01-02T05:57:12.293Z,356.77
2023-01-02T06:02:19.616Z,356.49
2023-01-02T06:07:26.676Z,354.94
2023-01-02T06:12:33.910Z,355.22
2023-01-02T06:17:41.035Z,356.04
2023-01-02T06:22:48.263Z,355.63
2023-01-02T06:27:55.526Z,355.72
2023-01-02T06:33:02.696Z,355.29
2023-01-02T06:38:09.922Z,355.62
2023-01-02T06:43:17.210Z,355.21
2023-01-02T06:48:24.415Z,354.66
2023-01-02T06:53:31.654Z,354.60
2023-01-02T06:58:38.842Z,354.57
2023-01-02T07:03:46.039Z,354.03
2023-01-02T07:08:53.240Z,353.71
2023-01-02T07:14:00.433Z,355.66
2023-01-02T07:19:07.672Z,354.04
2023-01-02T07:24:14.939Z,354.58
2023-01-02T07:29:22.144Z,353.68
2023-01-02T07:34:29.303Z,352.74
2023-01-02T07:39:36.518Z,352.69
2023-01-02T07:44:43.810Z,352.70
2023-01-02T07:49:50.991Z,352.88
2023-01-02T07:54:58.168Z,352.50
2023-01-02T08:00:05.387Z,352.95
2023-01-02T08:05:12.567Z,354.04
2023-01-02T08:10:19.781Z,353.42
2023-01-02T08:15:27.073Z,353.64
2023-01-02T08:20:34.185Z,351.41
2023-01-02T08:25:41.348Z,352.21
2023-01-02T08:30:48.653Z,353.37
2023-01-02T08:35:55.700Z,352.14
2023-01-02T08:41:02.957Z,352.40
2023-01-02T08:46:10.360Z,349.98
2023-01-02T08:51:17.306Z,348.95
2023-01-02T08:56:24.516Z,350.61
2023-01-02T09:01:31.859Z,349.05
2023-01-02T09:06:38.946Z,347.99
2023-01-02T09:11:46.167Z,348.10
2023-01-02T09:16:53.458Z,347.60
2023-01-02T09:22:00.536Z,346.86
2023-01-02T09:27:07.710Z,346.24
2023-01-02T09:32:15.075Z,345.86
2023-01-02T09:37:22.144Z,345.32
2023-01-02T09:42:29.435Z,344.75
2023-01-02T09:47:36.682Z,344.61
2023-01-02T09:52:43.915Z,343.61
2023-01-02T09:57:51.196Z,344.13
2023-01-02T10:03:02.734Z,344.37
2023-01-02T10:08:05.709Z,344.98
2023-01-02T10:13:12.896Z,345.40
2023-01-02T10:18:20.213Z,344.31
2023-01-02T10:23:27.298Z,344.40
2023-01-02T10:28:34.511Z,345.11
2023-01-02T10:33:41.730Z,345.43
2023-01-02T10:38:48.892Z,345.24
2023-01-02T10:43:56.126Z,345.87
2023-01-02T10:49:03.420Z,345.68
2023-01-02T10:54:10.575Z,346.42
2023-01-02T10:59:17.729Z,346.61
2023-01-02T11:04:25.065Z,347.61
2023-01-02T11:09:32.155Z,347.74
2023-01-02T11:14:39.415Z,347.47
2023-01-02T11:19:46.697Z,346.98
2023-01-02T11:24:59.624Z,346.60
2023-01-02T11:30:01.100Z,346.09
2023-01-02T11:35:08.293Z,345.91
2023-01-02T11:40:15.512Z,346.51
2023-01-02T11:45:22.736Z,347.15
2023-01-02T11:50:30.000Z,346.45
2023-01-02T11:55:37.168Z,346.01
2023-01-02T12:00:44.415Z,344.16
2023-01-02T12:05:51.661Z,342.96
2023-01-02T12:10:58.833Z,342.40
2023-01-02T12:16:06.010Z,341.62
2023-01-02T12:21:13.252Z,340.22
2023-01-02T12:26:20.431Z,340.48
2023-01-02T12:31:27.648Z,340.02
2023-01-02T12:36:34.854Z,339.93
2023-01-02T12:42:01.978Z,339.93
2023-01-02T12:46:49.235Z,339.09
2023-01-02T12:51:56.484Z,340.10
2023-01-02T12:57:03.672Z,340.30
2023-01-02T13:02:11.188Z,340.40
2023-01-02T13:07:18.140Z,340.31
2023-01-02T13:12:25.375Z,339.95
2023-01-02T13:17:32.579Z,340.29
2023-01-02T13:22:39.778Z,338.64
2023-01-02T13:27:46.984Z,337.95
2023-01-02T13:32:54.199Z,337.50
2023-01-02T13:38:01.453Z,337.86
2023-01-02T13:43:08.717Z,337.04
2023-01-02T13:48:15.902Z,336.62
2023-01-02T13:53:23.133Z,336.31
2023-01-02T13:58:30.377Z,335.95
2023-01-02T14:03:37.682Z,335.98
2023-01-02T14:08:44.961Z,335.29
2023-01-02T14:13:52.074Z,334.53
2023-01-02T14:18:59.336Z,335.69
2023-01-02T14:24:17.582Z,333.64
2023-01-02T14:29:13.742Z,334.40
2023-01-02T14:34:20.932Z,333.91
2023-01-02T14:39:28.270Z,332.58
2023-01-02T14:44:35.486Z,331.21
2023-01-02T14:49:42.707Z,330.42
2023-01-02T14:54:49.901Z,329.22
2023-01-02T14:59:57.078Z,329.23
2023-01-02T15:05:04.280Z,327.57
2023-01-02T15:10:11.553Z,327.98
2023-01-02T15:15:18.918Z,327.73
2023-01-02T15:20:26.125Z,327.69
2023-01-02T15:25:33.405Z,327.41
2023-01-02T15:30:40.635Z,326.85
2023-01-02T15:35:47.818Z,326.37
2023-01-02T15:40:55.151Z,324.85
2023-01-02T15:46:02.241Z,323.34
2023-01-02T15:51:09.390Z,323.00
2023-01-02T15:56:16.558Z,322.87
2023-01-02T16:01:23.862Z,322.32
2023-01-02T16:06:30.919Z,320.63
2023-01-02T16:11:38.077Z,320.36
2023-01-02T16:16:45.307Z,320.20
2023-01-02T16:21:52.432Z,319.99
2023-01-02T16:26:59.645Z,319.20
2023-01-02T16:32:06.893Z,318.82
2023-01-02T16:37:14.092Z,318.90
2023-01-02T16:42:21.295Z,318.14
2023-01-02T16:47:28.517Z,317.48
2023-01-02T16:52:35.705Z,317.61
2023-01-02T16:57:43.042Z,316.84
2023-01-02T17:02:50.196Z,316.71
2023-01-02T17:07:57.309Z,316.30
2023-01-02T17:13:04.535Z,315.96
2023-01-02T17:18:11.689Z,316.60
2023-01-02T17:23:19.067Z,316.72
2023-01-02T17:28:26.143Z,315.88
2023-01-02T17:33:33.340Z,315.23
2023-01-02T17:38:40.541Z,314.57
2023-01-02T17:44:02.702Z,314.10
2023-01-02T17:48:54.956Z,314.87
2023-01-02T17:54:02.160Z,313.49
2023-01-02T17:59:09.474Z,313.55
2023-01-02T18:04:16.647Z,312.79
2023-01-02T18:09:23.905Z,312.26
2023-01-02T18:14:31.294Z,311.18
2023-01-02T18:19:38.646Z,311.46
2023-01-02T18:24:45.918Z,310.51
2023-01-02T18:29:53.428Z,310.94
2023-01-02T18:35:16.200Z,310.34
2023-01-02T18:40:07.970Z,311.10
2023-01-02T18:45:15.260Z,310.50
2023-01-02T18:50:24.209Z,309.68
2023-01-02T18:55:32.030Z,310.43
2023-01-02T19:00:37.069Z,309.45
2023-01-02T19:05:44.570Z,308.54
2023-01-02T19:10:51.860Z,309.09
2023-01-02T19:15:59.288Z,307.93
2023-01-02T19:21:06.700Z,307.92
2023-01-02T19:26:13.895Z,307.90
2023-01-02T19:31:21.378Z,308.56
2023-01-02T19:36:28.597Z,307.80
2023-01-02T19:41:36.218Z,307.57
2023-01-02T19:46:43.851Z,307.07
2023-01-02T19:51:51.469Z,306.39
2023-01-02T19:56:58.967Z,306.30
2023-01-02T20:02:06.557Z,305.99
2023-01-02T20:07:13.896Z,304.74
2023-01-02T20:12:21.256Z,304.71
2023-01-02T20:17:28.643Z,304.64
2023-01-02T20:22:35.998Z,305.03
2023-01-02T20:27:43.349Z,304.32
2023-01-02T20:32:50.857Z,303.15
2023-01-02T20:37:58.465Z,302.12
2023-01-02T20:43:06.148Z,303.36
2023-01-02T20:48:13.536Z,302.72
2023-01-02T20:53:27.214Z,301.07
2023-01-02T20:58:34.733Z,300.15
2023-01-02T21:03:42.557Z,300.49
2023-01-02T21:08:49.926Z,300.40
2023-01-02T21:13:57.469Z,298.86
2023-01-02T21:19:04.958Z,299.21
2023-01-02T21:24:12.208Z,299.35
2023-01-02T21:29:19.490Z,298.06
2023-01-02T21:34:26.741Z,296.94
2023-01-02T21:39:33.911Z,296.68
2023-01-02T21:44:41.091Z,296.47
2023-01-02T21:49:48.340Z,296.05
2023-01-02T21:54:55.516Z,295.33
2023-01-02T22:00:02.716Z,293.96
2023-01-02T22:05:09.908Z,294.56
2023-01-02T22:10:17.142Z,294.39
2023-01-02T22:15:24.369Z,294.51
2023-01-02T22:20:31.630Z,293.74
2023-01-02T22:25:38.758Z,293.70
2023-01-02T22:30:45.974Z,292.48
2023-01-02T22:35:53.223Z,291.84
2023-01-02T22:41:00.395Z,292.80
2023-01-02T22:46:07.588Z,292.31
2023-01-02T22:51:14.807Z,291.40
2023-01-02T22:56:21.920Z,291.52
2023-01-02T23:01:29.121Z,291.71
2023-01-02T23:06:51.414Z,291.23
2023-01-02T23:11:43.460Z,291.86
2023-01-02T23:16:50.672Z,291.38
2023-01-02T23:21:57.819Z,291.43
2023-01-02T23:27:04.943Z,290.56
2023-01-02T23:32:12.214Z,290.31
2023-01-02T23:37:19.341Z,289.33
2023-01-02T23:42:26.518Z,289.96
2023-01-02T23:47:33.714Z,289.70
2023-01-02T23:52:40.932Z,289.83
2023-01-02T23:57:49.040Z,289.44
